Terminal Aerodrome Forecast
Issued by NWS

Home | Current Version | Previous Version | Text Only | Print | Product List | Glossary On
Versions: 1 2 3 4 5 6 7 8 9 10 11 12 13 14
000
FTUS42 KTBW 230538
TAFRSW
TAF
KRSW 230538Z 2306/2406 05005KT P6SM FEW020 SCT040 BKN200
     FM230900 12005KT 5SM BR SCT025 BKN150
     FM231400 16008KT P6SM VCSH SCT025 BKN150
     FM231700 23009KT P6SM VCSH SCT035 BKN100
     FM232200 24007KT 6SM SHRA VCTS SCT020CB BKN035
     FM240200 16004KT P6SM VCSH SCT020 OVC035=

USA.gov is the U.S. government's official web portal to all federal, state and local government web resources and services.